Warm Springs Summit, Nevada Weather observations

Data are for observation ending at time listed.
 Day   Time    Ave.   Ave.  Ave.  Vector   Max.   Stn.    Total    Solar   Ave.  
  of    of     Air    Rel.  Wind   Wind    Wind   Baro.  Precip.   Rad.    Soil  
Year   Day     Temp.  Hum.  Speed  Dir.    Gust   Pres.                    Temp. 
2015   (PST)    F      %     mph   deg.    mph     mb.     in.     W/m2     F   
------------------------------------------------------------------------------
 243    6:40   62.1    21    8.0    36     10.5   775.4    0.00     246    71.1
 243    6:50   62.0    21    8.3    43     10.7   775.5    0.00     280    71.0
 243    7:00   62.6    20    8.5    46     11.1   775.5    0.00     314    71.0
 243    7:10   62.7    20    7.7    40     10.3   775.6    0.00     352    71.0
 243    7:20   62.8    20    8.4    35     11.6   775.6    0.00     386    70.9
 243    7:30   63.1    20    7.5    38     10.9   775.5    0.00     423    70.8
 243    7:40   63.7    20    8.3    34     12.0   775.6    0.00     458    70.8
 243    7:50   63.7    20    7.5    43     12.9   775.6    0.00     489    70.7
 243    8:00   64.1    19    7.5    32     12.3   775.7    0.00     524    70.7
 243    8:10   64.6    19    7.6    32     11.3   775.7    0.00     557    70.7
 243    8:20   64.5    19    8.3    29     10.9   775.7    0.00     590    70.8
 243    8:30   65.0    19    7.5    31      9.8   775.7    0.00     621    70.8
 243    8:40   66.3    18    7.9    47     11.1   775.7    0.00     649    70.8
 243    8:50   65.9    18    8.1    41     12.0   775.8    0.00     678    70.9
 243    9:00   66.4    18    8.1    54     11.7   775.9    0.00     703    71.0
 243    9:10   66.8    18    7.0    46     10.5   775.9    0.00     732    71.1
 243    9:20   67.5    17    6.7    49      9.6   776.0    0.00     751    71.2
 243    9:30   69.3    16    5.2    70      9.3   776.1    0.00     775    71.3
 243    9:40   70.4    21    6.4   108      9.6   776.1    0.00     790    71.5
 243    9:50   70.7    20    4.1    94      9.5   776.1    0.00     821    71.7
 243   10:00   72.6    16    6.0   110     13.3   776.1    0.00     841    71.8
 243   10:10   72.0    16    5.4   104     10.4   776.0    0.00     862    72.0
 243   10:20   72.7    17    7.6   114     14.9   776.0    0.00     877    72.2
 243   10:30   72.6    18    7.7   120     12.5   776.0    0.00     889    72.4
 243   10:40   74.0    16    8.9   128     16.9   775.9    0.00     901    72.7
 243   10:50   73.4    18    8.4   132     14.5   775.8    0.00     913    72.9
 243   11:00   73.3    18    8.7   132     17.7   775.7    0.00     922    73.2
 243   11:10   74.1    16    8.9   102     16.9   775.6    0.00     933    73.5
 243   11:20   74.6    16   10.6   124     16.7   775.5    0.00     935    73.8
 243   11:30   75.5    16   11.7   130     17.6   775.4    0.00     939    74.1
 243   11:40   75.6    16   12.8   130     20.7   775.4    0.00     941    74.4
 243   11:50   75.1    17    9.5   140     15.7   775.4    0.00     943    74.8
 243   12:00   76.0    17    8.5   148     19.2   775.3    0.00     956    75.1
 243   12:10   76.0    18   10.7   124     21.5   775.2    0.00     885    75.4
 243   12:20   76.1    17   10.5   112     19.3   775.0    0.00     471    75.7
 243   12:30   75.8    17    9.8    99     19.3   774.9    0.00     433    76.0
 243   12:40   77.6    16    7.5   127     15.2   774.9    0.00     812    76.3
 243   12:50   77.3    17   17.8   139     26.7   774.5    0.00     516    76.7
 243   13:00   76.3    18   14.3   156     25.1   774.7    0.00     898    77.0
 243   13:10   77.5    17    8.4   165     17.1   774.8    0.00     687    77.3
 243   13:20   79.5    15    6.2   226     16.1   774.7    0.00     956    77.6
 243   13:30   79.5    15    6.3   226     15.5   774.6    0.00     877    77.9
 243   13:40   79.1    15   15.5   197     24.8   774.4    0.00     998    78.2
 243   13:50   79.0    16   12.8   218     24.4   774.3    0.00     949    78.4
 243   14:00   76.3    18   17.8   197     27.6   774.0    0.00     165    78.6
 243   14:10   75.2    19   11.1   225     20.6   774.1    0.00     398    78.9
 243   14:20   77.8    17   13.4   231     23.1   773.9    0.00     891    79.1
 243   14:30   77.3    17   19.5   206     30.2   773.6    0.00     484    79.3
 243   14:40   75.7    19   22.7   217     32.2   773.4    0.00     569    79.6
 243   14:50   77.0    18   19.7   221     30.2   773.4    0.00     760    79.8
 243   15:00   77.2    17   16.5   227     27.6   773.5    0.00     728    80.0
 243   15:10   77.8    17   15.9   210     27.9   773.5    0.00     718    80.2
 243   15:20   77.1    17   19.5   243     31.2   773.4    0.00     466    80.4
 243   15:30   76.7    17   21.0   231     33.9   773.2    0.00     619    80.5
 243   15:40   76.6    16   20.4   233     32.0   773.2    0.00     539    80.7
 243   15:50   76.0    18   19.9   220     35.2   773.1    0.00     483    80.8
 243   16:00   76.0    17   21.7   222     33.2   773.1    0.00     446    80.9
 243   16:10   75.5    18   19.7   235     30.1   773.1    0.00     411    81.0
 243   16:20   75.1    18   22.9   238     34.5   773.0    0.00     372    81.1
 243   16:30   74.9    18   21.4   234     32.7   773.0    0.00     335    81.2
 243   16:40   75.0    17   21.9   236     30.6   773.0    0.00     298    81.2
 243   16:50   74.4    17   22.0   214     34.7   772.9    0.00     263    81.2
 243   17:00   74.2    17   19.3   227     29.5   773.0    0.00     228    81.2
 243   17:10   73.8    17   19.5   228     29.6   772.9    0.00     194    81.2
 243   17:20   73.5    18   20.7   228     30.4   772.9    0.00     162    81.2
 243   17:30   73.1    18   18.9   223     28.4   773.0    0.00     131    81.1
 243   17:40   72.8    18   18.2   236     28.9   773.0    0.00      94    81.1
 243   17:50   72.3    18   19.5   232     27.9   773.0    0.00      58    81.1
 243   18:00   72.0    18   16.1   218     25.6   773.0    0.00      29    81.1
 243   18:10   71.4    18   15.5   221     25.0   773.0    0.00      10    81.0
 243   18:20   70.8    18   17.8   231     30.8   773.0    0.00       3    80.9
 243   18:30   70.5    19   16.0   218     26.7   773.1    0.00       1    80.8
 243   18:40   70.2    19   16.6   222     26.6   773.2    0.00       0    80.7
 243   18:50   70.0    19   20.0   215     25.9   773.1    0.00       0    80.6
 243   19:00   69.7    19   17.2   221     25.0   773.3    0.00       0    80.5
 243   19:10   69.7    19   16.7   221     23.2   773.4    0.00       0    80.4
 243   19:20   69.5    19   18.6   216     27.8   773.5    0.00       0    80.2
 243   19:30   69.2    19   17.2   216     22.3   773.6    0.00       0    80.1
 243   19:40   68.9    20   18.7   216     26.8   773.6    0.00       0    79.9
 243   19:50   68.5    20   20.2   216     26.1   773.7    0.00       0    79.8
 243   20:00   68.4    19   19.4   216     26.6   773.8    0.00       0    79.7
 243   20:10   68.2    19   19.9   212     26.1   773.8    0.00       0    79.5
 243   20:20   68.0    19   18.7   217     23.5   773.9    0.00       0    79.3
 243   20:30   67.8    19   18.1   218     22.8   774.0    0.00       0    79.2
 243   20:40   67.7    19   17.1   223     22.1   774.0    0.00       0    79.0
 243   20:50   67.4    19   17.3   221     25.2   773.9    0.00       0    78.8
 243   21:00   67.5    19   19.9   218     25.6   773.9    0.00       0    78.7
 243   21:10   67.2    19   19.1   222     24.3   774.0    0.00       0    78.5
 243   21:20   66.8    20   18.6   224     22.6   774.0    0.00       0    78.4
 243   21:30   66.7    20   18.6   224     22.9   774.0    0.00       0    78.2
 243   21:40   66.8    20   17.9   226     21.0   774.0    0.00       0    78.0
 243   21:50   66.6    20   18.0   229     20.9   774.0    0.00       0    77.9
 243   22:00   66.5    20   17.2   230     20.2   774.0    0.00       0    77.8
 243   22:10   66.5    21   18.0   234     23.1   774.0    0.00       0    77.6
 243   22:20   66.4    21   18.5   234     24.0   774.0    0.00       0    77.4
 243   22:30   66.4    21   18.6   238     24.1   774.0    0.00       0    77.3
 243   22:40   65.9    22   18.7   238     23.4   774.0    0.00       0    77.1
 243   22:50   65.7    22   18.8   237     22.9   774.0    0.00       0    77.1
 243   23:00   65.7    21   19.1   236     23.1   774.0    0.00       0    76.9
 243   23:10   65.5    21   18.4   237     23.5   774.1    0.00       0    76.8
 243   23:20   65.5    21   19.6   236     24.5   774.0    0.00       0    76.6
 243   23:30   65.2    20   19.6   238     24.6   774.0    0.00       0    76.5
 243   23:40   65.0    20   18.8   238     24.5   774.0    0.00       0    76.4
 243   23:50   65.0    20   19.9   233     24.7   774.0    0.00       0    76.2
 244    0:00   65.1    20   19.4   228     24.0   774.0    0.00       0    76.1
 244    0:10   64.7    20   18.8   234     24.1   774.0    0.00       0    75.9
 244    0:20   64.6    20   19.2   234     24.0   774.0    0.00       0    75.8
 244    0:30   64.7    20   21.1   228     26.1   773.9    0.00       0    75.7
 244    0:40   64.6    20   21.7   230     26.0   773.8    0.00       0    75.6
 244    0:50   64.4    20   20.3   233     23.8   773.8    0.00       0    75.5
 244    1:00   64.3    19   20.2   234     24.9   773.8    0.00       0    75.3
 244    1:10   64.4    19   20.8   233     23.4   773.7    0.00       0    75.2
 244    1:20   64.4    19   20.9   233     24.2   773.7    0.00       0    75.1
 244    1:30   64.3    19   20.1   234     24.0   773.7    0.00       0    74.9
 244    1:40   64.1    18   19.8   232     23.3   773.7    0.00       0    74.8
 244    1:50   63.9    18   18.0   236     21.8   773.7    0.00       0    74.7
 244    2:00   63.7    19   17.9   237     21.6   773.6    0.00       0    74.6
 244    2:10   63.7    19   18.1   241     23.2   773.7    0.00       0    74.5
 244    2:20   63.6    19   17.1   238     21.8   773.7    0.00       0    74.4
 244    2:30   63.6    19   17.5   230     21.0   773.8    0.00       0    74.4
 244    2:40   63.5    19   17.0   225     20.1   773.8    0.00       0    74.3
 244    2:50   63.8    19   17.0   216     20.2   773.8    0.00       0    74.1
 244    3:00   63.8    19   16.6   213     21.0   773.8    0.00       0    74.0
 244    3:10   63.5    19   14.6   209     17.1   773.8    0.00       0    73.9
 244    3:20   63.5    19   14.8   214     18.3   773.8    0.00       0    73.8
 244    3:30   63.9    18   15.6   216     20.1   773.8    0.00       0    73.6
 244    3:40   63.8    18   18.0   212     24.2   773.7    0.00       0    73.6
 244    3:50   63.9    19   18.1   215     23.2   773.6    0.00       0    73.4
 244    4:00   63.6    19   17.7   214     23.8   773.6    0.00       0    73.4
 244    4:10   63.4    20   17.6   213     22.2   773.6    0.00       0    73.3
 244    4:20   63.2    20   18.2   211     21.4   773.7    0.00       0    73.3
 244    4:30   62.9    21   17.9   211     20.1   773.7    0.00       0    73.1
 244    4:40   62.8    22   18.2   211     20.9   773.7    0.00       0    73.0
 244    4:50   62.8    22   17.6   213     21.8   773.7    0.00       0    72.8
 244    5:00   63.1    23   18.5   216     26.3   773.7    0.00       1    72.7
 244    5:10   63.0    23   16.8   217     23.5   773.8    0.00       3    72.7
 244    5:20   62.9    23   14.6   216     19.3   774.0    0.00       8    72.6
 244    5:30   63.0    23   15.7   215     23.7   774.1    0.00      21    72.6
 244    5:40   63.1    23   14.5   214     20.3   774.2    0.00      45    72.4
 244    5:50   63.2    23   13.5   216     18.1   774.2    0.00      81    72.4
 244    6:00   63.6    22   13.2   218     19.6   774.3    0.00     122    72.3
 244    6:10   63.8    22   11.7   221     18.2   774.4    0.00     156    72.2
 244    6:20   64.1    22    9.4   217     13.6   774.5    0.00     190    72.2
 244    6:30   64.5    21    9.7   214     14.9   774.5    0.00     223    72.2

Return to Warm Springs Summit, Nevada graphs page.


Western Regional Climate Center,wrcc@dri.edu